Time;durP1;ratioP1;P1;durP2;ratioP2;P2;SDS_P1;SDS_P2;PMS_P1;PMS_P2;Temp;Humidity;BMP_temperature;BMP_pressure;BME280_temperature;BME280_humidity;BME280_pressure;Samples;Min_cycle;Max_cycle;Signal;HPM_P1;HPM_P2
2022/01/29 00:00:36;;;;;;;3.23;0.67;;;3.00;81.20;;;0.93;57.78;101019.38;10427445;27;96603;-76
2022/01/29 00:05:40;;;;;;;1.10;0.50;;;2.90;80.60;;;0.97;57.52;101029.59;10433861;27;96490;-77
2022/01/29 00:10:45;;;;;;;2.30;0.60;;;2.80;80.50;;;0.99;57.46;101024.28;10399268;28;97012;-77
2022/01/29 00:15:48;;;;;;;3.20;0.53;;;2.80;79.90;;;0.98;57.94;101033.06;10415691;28;96563;-76
2022/01/29 00:20:51;;;;;;;2.33;0.50;;;2.80;80.90;;;0.90;58.30;101036.13;10416476;27;96499;-76
2022/01/29 00:25:54;;;;;;;0.73;0.50;;;2.80;81.40;;;0.84;58.91;101032.97;10398808;28;96521;-76
2022/01/29 00:30:57;;;;;;;1.43;0.43;;;2.70;81.90;;;0.75;59.33;101061.34;10423755;27;96714;-76
2022/01/29 00:35:59;;;;;;;1.60;0.50;;;2.70;82.70;;;0.65;60.29;101070.59;10447442;27;96493;-76
2022/01/29 00:41:03;;;;;;;6.13;1.20;;;2.60;83.50;;;0.54;61.19;101073.00;10427084;27;97023;-77
2022/01/29 00:46:05;;;;;;;3.23;1.20;;;2.50;84.30;;;0.44;62.48;101090.09;10424824;27;98329;-77
2022/01/29 00:51:08;;;;;;;3.43;1.30;;;2.40;86.40;;;0.32;63.00;101078.50;10432167;27;96549;-77
2022/01/29 00:56:11;;;;;;;5.03;1.17;;;2.30;89.50;;;0.23;64.24;101084.19;10400122;28;97932;-76
2022/01/29 01:01:14;;;;;;;3.60;1.17;;;2.20;89.70;;;0.14;64.94;101082.09;10398664;27;97108;-76
2022/01/29 01:06:17;;;;;;;3.77;1.23;;;2.10;90.00;;;0.08;65.99;101085.00;10413188;27;96679;-76
2022/01/29 01:11:20;;;;;;;1.97;0.67;;;2.00;91.30;;;0.05;66.48;101083.38;10385956;28;97371;-76
2022/01/29 01:16:23;;;;;;;2.37;0.83;;;2.00;91.80;;;-0.03;67.43;101096.84;10412857;28;96717;-76
2022/01/29 01:21:26;;;;;;;3.30;0.70;;;1.90;92.40;;;-0.09;67.49;101086.72;10413252;28;96909;-79
2022/01/29 01:26:29;;;;;;;5.30;0.70;;;1.80;92.80;;;-0.05;67.26;101092.63;10405320;27;96508;-78
2022/01/29 01:31:32;;;;;;;2.73;0.73;;;1.80;93.10;;;-0.05;66.42;101084.81;10401524;27;96792;-78
2022/01/29 01:36:42;;;;;;;3.33;1.00;;;1.80;93.00;;;-0.01;66.08;101097.59;10384888;27;96994;-78
2022/01/29 01:42:06;;;;;;;5.57;0.80;;;1.80;92.90;;;-0.01;66.20;101095.00;10401052;27;96527;-77
2022/01/29 01:47:10;;;;;;;2.87;1.03;;;1.90;93.00;;;0.01;65.91;101102.78;10400528;27;96494;-78
2022/01/29 01:52:14;;;;;;;2.70;1.13;;;1.90;92.90;;;0.01;66.26;101101.94;10433802;27;97236;-77
2022/01/29 01:57:17;;;;;;;2.93;0.90;;;1.90;93.00;;;-0.09;66.43;101112.84;10430588;27;96723;-77
2022/01/29 02:02:21;;;;;;;4.43;0.80;;;1.80;93.00;;;-0.10;66.61;101094.63;10410590;27;97193;-76
2022/01/29 02:07:25;;;;;;;2.83;0.90;;;1.80;93.10;;;-0.07;66.00;101104.91;10408252;27;97328;-75
2022/01/29 02:12:32;;;;;;;3.50;0.80;;;1.80;93.00;;;-0.01;66.12;101102.84;10393617;28;96455;-76
2022/01/29 02:17:35;;;;;;;2.27;0.73;;;1.90;93.00;;;0.04;65.75;101107.00;10411808;27;96535;-77
2022/01/29 02:22:44;;;;;;;2.77;0.80;;;1.90;93.10;;;0.08;65.58;101114.59;10416314;27;97217;-76
2022/01/29 02:27:46;;;;;;;4.03;1.07;;;2.00;92.80;;;0.06;65.26;101134.75;10404232;28;97150;-76
2022/01/29 02:32:49;;;;;;;3.70;1.00;;;2.00;92.70;;;0.00;65.41;101127.22;10414172;27;96974;-77
2022/01/29 02:37:53;;;;;;;3.60;0.60;;;1.90;92.60;;;-0.09;65.61;101146.81;10414200;27;96602;-76
2022/01/29 02:42:56;;;;;;;3.27;0.97;;;1.90;93.00;;;-0.15;65.80;101154.09;10435288;27;96537;-77
2022/01/29 02:47:59;;;;;;;2.73;1.20;;;1.90;92.70;;;-0.23;66.19;101166.72;10409570;28;96615;-76
2022/01/29 02:53:02;;;;;;;2.63;0.80;;;1.80;92.90;;;-0.25;66.70;101164.16;10409182;27;96915;-76
2022/01/29 02:58:06;;;;;;;2.07;0.80;;;1.80;93.10;;;-0.28;66.48;101173.00;10420690;28;97845;-76
2022/01/29 03:03:08;;;;;;;3.20;0.83;;;1.70;93.10;;;-0.27;66.90;101160.78;10382796;28;96542;-77
2022/01/29 03:08:11;;;;;;;2.83;0.67;;;1.70;93.40;;;-0.24;66.34;101175.44;10418067;27;97993;-77
2022/01/29 03:13:16;;;;;;;1.73;0.80;;;1.70;93.20;;;-0.25;66.46;101147.63;10447651;27;97227;-77
2022/01/29 03:18:19;;;;;;;1.97;0.80;;;1.70;93.30;;;-0.22;66.29;101152.72;10418816;27;96733;-77
2022/01/29 03:23:22;;;;;;;8.33;0.80;;;1.70;93.20;;;-0.21;65.92;101157.03;10432111;27;96502;-77
2022/01/29 03:28:24;;;;;;;3.30;0.77;;;1.70;93.00;;;-0.24;65.75;101159.78;10417799;28;96499;-77
2022/01/29 03:33:29;;;;;;;2.17;0.80;;;1.70;92.90;;;-0.27;65.78;101151.19;10416484;27;97035;-78
2022/01/29 03:38:32;;;;;;;1.80;0.80;;;1.70;92.70;;;-0.32;65.82;101154.94;10445038;27;96896;-78
2022/01/29 03:43:42;;;;;;;4.40;1.60;;;1.70;92.70;;;-0.46;66.08;101153.00;10383970;28;97664;-78
2022/01/29 03:48:45;;;;;;;1.90;0.80;;;1.60;92.70;;;-0.54;66.08;101162.94;10425212;27;97628;-77
2022/01/29 03:53:48;;;;;;;2.80;1.10;;;1.50;92.60;;;-0.56;66.23;101172.63;10437901;27;96886;-77
2022/01/29 03:58:51;;;;;;;2.87;1.40;;;1.50;92.60;;;-0.56;65.83;101172.63;10414485;27;96591;-77
2022/01/29 04:03:53;;;;;;;3.30;1.00;;;1.40;92.50;;;-0.53;65.94;101184.72;10404262;28;96584;-77
2022/01/29 04:08:57;;;;;;;7.20;1.70;;;1.50;92.50;;;-0.56;65.81;101186.53;10417355;28;96619;-76
2022/01/29 04:14:00;;;;;;;3.10;0.80;;;1.50;92.50;;;-0.60;65.98;101192.84;10432090;27;96971;-77
2022/01/29 04:19:03;;;;;;;2.73;1.00;;;1.40;92.50;;;-0.63;66.10;101184.28;10416270;27;96602;-77
2022/01/29 04:24:07;;;;;;;6.03;1.13;;;1.40;92.60;;;-0.67;66.01;101180.13;10425298;27;96588;-77
2022/01/29 04:29:09;;;;;;;7.90;1.10;;;1.40;92.60;;;-0.69;66.29;101180.19;10394404;27;97015;-78
2022/01/29 04:34:12;;;;;;;4.13;1.73;;;1.40;92.60;;;-0.69;65.76;101172.38;10403391;27;96931;-77
2022/01/29 04:39:15;;;;;;;3.13;1.13;;;1.30;92.40;;;-0.72;65.86;101174.25;10416577;27;96672;-76
2022/01/29 04:44:18;;;;;;;144.50;64.73;;;1.30;92.50;;;-0.71;65.82;101175.97;10414224;27;96569;-77
2022/01/29 04:49:21;;;;;;;45.00;21.87;;;1.30;92.40;;;-0.71;65.45;101168.16;10413657;28;96525;-77
2022/01/29 04:54:24;;;;;;;8.57;3.97;;;1.30;92.30;;;-0.66;65.53;101155.69;10430492;27;96953;-77
2022/01/29 04:59:27;;;;;;;4.67;1.60;;;1.30;92.10;;;-0.51;64.22;101168.03;10398672;28;96467;-77
2022/01/29 05:04:29;;;;;;;4.90;1.43;;;1.40;91.90;;;-0.49;64.06;101160.13;10396303;28;96505;-77
2022/01/29 05:09:32;;;;;;;15.40;8.23;;;1.50;91.70;;;-0.53;64.06;101164.66;10425186;27;96815;-77
2022/01/29 05:14:48;;;;;;;9.37;3.47;;;1.50;91.60;;;-0.61;64.39;101177.22;10418498;27;96549;-77
2022/01/29 05:30:35;;;;;;;4.97;1.00;;;1.30;91.50;;;-0.69;64.73;101193.25;10414814;27;96597;-77
2022/01/29 05:35:37;;;;;;;4.93;1.77;;;1.30;91.40;;;-0.70;64.57;101191.56;10394579;27;96542;-78
2022/01/29 05:40:41;;;;;;;4.80;1.40;;;1.30;91.30;;;-0.71;64.28;101192.50;10412135;27;96557;-78
2022/01/29 05:45:43;;;;;;;9.47;2.00;;;1.30;91.50;;;-0.83;64.51;101201.72;10377761;28;96580;-77
2022/01/29 05:50:47;;;;;;;10.47;2.60;;;1.30;91.00;;;-0.82;63.95;101195.59;10414289;28;97123;-77
2022/01/29 05:55:49;;;;;;;5.97;3.13;;;1.20;90.90;;;-0.87;64.04;101189.72;10377491;28;96457;-77
2022/01/29 06:00:52;;;;;;;13.77;4.53;;;1.20;90.80;;;-0.97;64.22;101185.00;10364457;27;96508;-77
2022/01/29 06:05:56;;;;;;;9.07;4.33;;;1.10;90.90;;;-1.00;64.48;101185.16;10374542;28;96578;-77
2022/01/29 06:11:00;;;;;;;6.03;3.00;;;1.10;90.90;;;-0.91;64.10;101174.28;10419095;27;96862;-77
2022/01/29 06:16:03;;;;;;;12.30;3.87;;;1.10;90.80;;;-0.86;64.03;101183.59;10394580;28;96534;-77
2022/01/29 06:21:08;;;;;;;5.70;1.97;;;1.20;90.90;;;-0.86;63.92;101173.16;10409932;27;96538;-78
2022/01/29 06:26:13;;;;;;;3.03;1.30;;;1.20;90.70;;;-0.75;63.36;101198.75;10383614;27;97001;-77
2022/01/29 06:31:16;;;;;;;5.07;1.80;;;1.20;90.20;;;-0.59;62.98;101180.63;10390286;27;96964;-77
2022/01/29 06:36:19;;;;;;;3.73;1.10;;;1.30;90.20;;;-0.38;62.05;101176.13;10384551;28;96428;-77
2022/01/29 06:41:22;;;;;;;2.10;0.83;;;1.50;86.90;;;-0.08;59.26;101186.84;10377161;27;96998;-79
2022/01/29 06:46:25;;;;;;;5.53;1.33;;;1.70;83.80;;;0.09;59.59;101199.06;10418887;27;97781;-76
2022/01/29 06:51:28;;;;;;;5.40;1.60;;;1.90;85.60;;;0.17;59.10;101199.53;10355380;28;97073;-75
2022/01/29 06:56:31;;;;;;;3.63;1.43;;;2.00;86.00;;;0.21;59.40;101203.69;10398653;27;96541;-77
2022/01/29 07:01:33;;;;;;;3.37;1.70;;;2.10;86.20;;;0.21;59.43;101204.53;10385384;27;98387;-78
2022/01/29 07:06:36;;;;;;;2.30;1.00;;;2.10;86.00;;;0.30;57.01;101208.47;10402503;27;96661;-79
2022/01/29 07:11:42;;;;;;;4.07;1.57;;;2.20;83.10;;;0.50;57.00;101199.59;10385141;28;97363;-77
2022/01/29 07:16:46;;;;;;;2.77;1.20;;;2.30;79.40;;;0.68;55.66;101203.03;10396660;27;96979;-77
2022/01/29 07:21:49;;;;;;;6.63;2.80;;;2.50;82.00;;;0.79;55.51;101206.78;10429064;27;96767;-77
2022/01/29 07:26:52;;;;;;;6.43;1.83;;;2.60;81.40;;;1.00;54.29;101193.47;10415766;27;96954;-77
2022/01/29 07:31:56;;;;;;;3.53;1.27;;;2.70;76.90;;;1.23;52.12;101202.69;10390838;27;97822;-77
2022/01/29 07:36:59;;;;;;;2.27;1.10;;;2.90;74.90;;;1.41;50.45;101198.22;10368201;28;96670;-77
2022/01/29 07:42:03;;;;;;;4.90;1.37;;;3.00;74.30;;;1.89;51.82;101186.75;10442959;27;97110;-77
2022/01/29 07:47:07;;;;;;;6.30;2.43;;;3.30;74.30;;;2.65;51.19;101190.13;10391327;27;96700;-77
2022/01/29 07:52:10;;;;;;;6.30;1.70;;;3.80;74.40;;;3.43;49.02;101201.03;10393089;28;96469;-77
2022/01/29 07:57:12;;;;;;;4.27;1.20;;;4.40;68.90;;;3.97;47.24;101197.56;10388240;28;96532;-78
2022/01/29 08:02:15;;;;;;;4.53;1.70;;;4.90;68.10;;;4.21;45.95;101201.19;10416553;27;97048;-78
2022/01/29 08:07:18;;;;;;;3.50;1.37;;;5.20;68.60;;;4.79;45.47;101199.84;10395729;28;96556;-78
2022/01/29 08:12:22;;;;;;;6.40;2.53;;;5.70;68.70;;;5.15;44.17;101197.38;10396531;27;96995;-77
2022/01/29 08:17:25;;;;;;;5.53;1.40;;;6.10;66.80;;;4.84;42.39;101202.16;10408209;28;97277;-78
2022/01/29 08:22:28;;;;;;;5.20;1.80;;;6.10;63.50;;;4.54;43.93;101191.94;10392618;27;96644;-78
2022/01/29 08:27:31;;;;;;;5.77;2.00;;;6.00;59.90;;;4.61;43.49;101187.09;10406729;27;96539;-78
2022/01/29 08:32:41;;;;;;;13.17;6.13;;;6.00;61.40;;;4.63;43.11;101201.03;10412584;27;96596;-78
2022/01/29 08:37:44;;;;;;;23.20;9.90;;;6.00;62.20;;;4.57;41.54;101191.75;10390771;27;96698;-78
2022/01/29 08:42:47;;;;;;;36.10;14.43;;;6.00;57.60;;;4.77;43.10;101193.00;10395123;27;96609;-78
2022/01/29 08:47:50;;;;;;;12.63;4.53;;;6.10;61.50;;;5.21;44.10;101196.94;10432450;27;97390;-78
2022/01/29 08:52:53;;;;;;;9.20;3.07;;;6.30;63.70;;;5.60;44.16;101203.78;10397729;28;96553;-78
2022/01/29 08:57:55;;;;;;;8.17;2.33;;;6.60;64.90;;;6.28;44.15;101205.78;10416276;27;96468;-78
2022/01/29 09:02:58;;;;;;;8.60;3.30;;;7.10;64.80;;;6.89;42.88;101210.81;10404630;27;98555;-78
2022/01/29 09:08:03;;;;;;;6.83;3.57;;;7.60;63.90;;;7.10;42.24;101214.44;10391446;27;96515;-79
2022/01/29 09:13:06;;;;;;;5.87;2.27;;;7.90;62.30;;;7.15;42.19;101214.91;10415129;28;96799;-79
2022/01/29 09:18:09;;;;;;;5.63;1.87;;;8.10;62.20;;;7.22;42.26;101212.63;10402945;28;96514;-79
2022/01/29 09:23:12;;;;;;;4.60;2.20;;;8.20;61.60;;;7.52;40.61;101204.03;10373957;27;96492;-79
2022/01/29 09:28:16;;;;;;;10.10;3.03;;;8.40;60.90;;;7.80;38.78;101202.66;10413602;28;96916;-78
2022/01/29 09:33:19;;;;;;;6.00;1.47;;;8.70;58.80;;;8.05;39.54;101206.75;10396461;28;96840;-78
2022/01/29 09:38:22;;;;;;;4.80;1.53;;;8.90;57.80;;;7.89;39.55;101203.69;10399334;27;99356;-78
2022/01/29 09:43:26;;;;;;;6.13;1.70;;;8.90;57.50;;;8.05;39.66;101206.75;10412745;27;96667;-78
2022/01/29 09:48:29;;;;;;;6.00;1.50;;;9.10;57.90;;;7.94;39.55;101183.81;10380728;27;96607;-77
2022/01/29 09:53:32;;;;;;;5.73;1.50;;;9.10;57.40;;;7.86;39.69;101174.84;10414222;28;96513;-78
2022/01/29 09:58:35;;;;;;;6.30;1.87;;;9.00;56.80;;;7.84;39.73;101171.47;10390158;27;98374;-76
2022/01/29 10:03:38;;;;;;;6.93;1.70;;;9.00;56.40;;;7.15;41.00;101166.50;10388066;27;98552;-77
2022/01/29 10:08:43;;;;;;;5.67;2.10;;;8.60;56.20;;;6.26;43.77;101154.91;10412474;27;98428;-76
2022/01/29 10:13:47;;;;;;;7.03;1.97;;;7.90;57.50;;;5.73;45.64;101158.91;10391605;27;96551;-76
2022/01/29 10:19:13;;;;;;;7.97;2.20;;;7.40;58.70;;;5.13;47.26;101162.38;10373589;27;97780;-76
2022/01/29 10:24:19;;;;;;;5.83;2.43;;;6.90;60.10;;;4.76;48.96;101163.19;10409222;27;97104;-76
2022/01/29 10:29:26;;;;;;;9.13;2.23;;;6.60;61.50;;;4.49;50.14;101155.41;10397874;27;96481;-76
2022/01/29 10:34:32;;;;;;;5.43;2.20;;;6.30;62.60;;;4.29;51.75;101156.78;10430044;27;96501;-81
2022/01/29 10:39:35;;;;;;;8.93;2.80;;;6.10;64.90;;;4.11;53.24;101144.03;10406028;27;96941;-77
2022/01/29 10:44:47;;;;;;;9.63;3.17;;;5.80;66.70;;;4.00;54.05;101140.31;10419297;27;97210;-77
2022/01/29 10:50:05;;;;;;;8.13;2.30;;;5.70;67.60;;;3.85;54.94;101143.97;10359996;27;96688;-77
2022/01/29 10:55:09;;;;;;;10.23;3.63;;;5.60;68.90;;;3.72;55.80;101141.31;10426439;27;96542;-76
2022/01/29 11:00:24;;;;;;;25.20;5.23;;;5.50;70.40;;;3.66;56.33;101136.47;10418491;27;96590;-79
2022/01/29 11:05:31;;;;;;;9.23;2.60;;;5.30;72.00;;;3.61;56.46;101127.19;10450857;27;96380;-79
2022/01/29 11:10:34;;;;;;;7.20;2.27;;;5.30;71.40;;;3.61;56.92;101133.28;10382186;27;96902;-79
2022/01/29 11:15:42;;;;;;;18.23;5.73;;;5.30;72.50;;;3.68;56.81;101134.56;10410137;27;96718;-79
2022/01/29 11:20:45;;;;;;;10.37;3.43;;;5.40;72.90;;;3.68;57.10;101120.59;10396904;27;96593;-79
2022/01/29 11:25:54;;;;;;;9.77;2.70;;;5.40;73.00;;;3.84;57.23;101102.84;10412493;27;97081;-79
2022/01/29 11:31:19;;;;;;;8.10;2.33;;;5.50;73.70;;;3.99;56.56;101086.03;10381186;27;97183;-79
2022/01/29 11:36:22;;;;;;;7.57;2.33;;;5.70;73.70;;;4.01;56.53;101084.13;10366809;27;98360;-79
2022/01/29 11:41:24;;;;;;;8.93;2.50;;;5.70;73.80;;;4.01;56.93;101083.28;10376022;28;96616;-79
2022/01/29 11:46:32;;;;;;;9.73;2.40;;;5.70;73.90;;;3.97;57.25;101077.41;10391169;28;96639;-78
2022/01/29 11:51:47;;;;;;;10.23;3.20;;;5.70;74.40;;;3.95;57.65;101062.66;10398211;28;96658;-78
2022/01/29 11:57:16;;;;;;;11.77;2.47;;;5.60;74.90;;;4.00;58.05;101055.31;10436450;27;98106;-79
2022/01/29 12:02:19;;;;;;;11.97;3.27;;;5.70;75.50;;;4.08;58.27;101057.41;10458222;27;96737;-78
2022/01/29 12:07:31;;;;;;;11.77;2.93;;;5.80;75.70;;;4.10;58.13;101045.00;10398563;27;96845;-78
2022/01/29 12:12:36;;;;;;;11.10;3.05;;;5.80;76.10;;;4.11;58.56;101039.63;10429360;27;96724;-78
2022/01/29 12:17:52;;;;;;;16.93;4.33;;;5.80;76.00;;;4.12;58.49;101020.28;10391779;27;97804;-78
2022/01/29 12:23:02;;;;;;;15.97;4.13;;;5.80;76.70;;;4.12;58.96;101014.19;10409741;28;96568;-79
2022/01/29 12:28:07;;;;;;;10.43;4.20;;;5.90;76.70;;;4.12;58.63;100995.75;10428253;27;96890;-76
2022/01/29 12:33:16;;;;;;;15.97;4.27;;;5.90;77.00;;;4.12;58.77;100985.25;10389763;27;96711;-75
2022/01/29 12:38:26;;;;;;;10.70;2.97;;;5.90;77.00;;;4.16;58.68;100984.09;10364237;27;96580;-77
2022/01/29 12:43:54;;;;;;;8.37;3.03;;;5.90;77.40;;;4.09;58.63;100970.53;10400262;27;96555;-76
2022/01/29 12:49:11;;;;;;;26.37;8.03;;;5.90;77.20;;;4.05;59.12;100963.78;10400322;27;98473;-76
2022/01/29 12:54:14;;;;;;;9.73;3.53;;;5.80;77.50;;;4.05;58.96;100955.06;10403170;27;96567;-77
2022/01/29 12:59:17;;;;;;;8.80;3.13;;;5.90;77.60;;;4.03;58.90;100947.28;10374726;28;96497;-76
2022/01/29 13:04:20;;;;;;;17.13;6.10;;;5.80;77.60;;;3.99;59.38;100949.28;10420981;27;98122;-77
2022/01/29 13:09:25;;;;;;;11.90;3.93;;;5.80;78.10;;;3.99;58.95;100953.69;10404973;27;96582;-76
2022/01/29 13:14:30;;;;;;;91.87;23.93;;;5.80;78.10;;;4.03;59.23;100947.28;10448385;27;96843;-77
2022/01/29 13:19:36;;;;;;;17.23;5.83;;;5.80;78.30;;;4.12;59.31;100946.63;10390630;28;98483;-78
2022/01/29 13:24:50;;;;;;;8.80;2.97;;;5.90;78.60;;;4.16;59.27;100934.09;10410700;27;96427;-79
2022/01/29 13:30:02;;;;;;;7.00;3.00;;;5.90;78.90;;;4.13;60.05;100936.94;10382439;28;97074;-78
2022/01/29 13:35:41;;;;;;;17.20;3.93;;;5.90;79.40;;;3.97;61.83;100924.03;10436570;27;96808;-79
2022/01/29 13:40:48;;;;;;;13.53;5.70;;;5.80;81.00;;;3.88;61.67;100922.88;10391736;28;96614;-78
2022/01/29 13:45:58;;;;;;;23.73;9.43;;;5.70;82.10;;;3.85;61.98;100909.97;10406120;27;96870;-78
2022/01/29 13:51:02;;;;;;;12.67;3.83;;;5.60;82.40;;;3.87;61.63;100896.72;10413689;27;96566;-78
2022/01/29 13:56:08;;;;;;;24.33;7.70;;;5.60;83.10;;;3.86;61.78;100900.28;10410741;27;97290;-79
2022/01/29 14:01:11;;;;;;;30.70;7.73;;;5.60;82.90;;;3.88;61.60;100885.25;10414462;27;96512;-78
2022/01/29 14:06:34;;;;;;;27.27;9.30;;;5.60;83.10;;;3.92;62.09;100874.41;10393465;27;97241;-79
2022/01/29 14:12:04;;;;;;;14.57;4.90;;;5.70;83.90;;;3.93;62.38;100864.72;10392874;27;96427;-78
2022/01/29 14:17:23;;;;;;;27.30;9.80;;;5.70;84.10;;;3.87;63.05;100849.38;10407086;27;96836;-78
2022/01/29 14:22:32;;;;;;;19.33;6.27;;;5.60;85.30;;;3.83;62.87;100843.50;10404003;28;97168;-78
2022/01/29 14:27:38;;;;;;;69.17;19.97;;;5.60;85.40;;;3.85;62.99;100827.63;10444865;27;96547;-80
2022/01/29 14:32:41;;;;;;;91.33;29.63;;;5.60;85.70;;;3.80;62.47;100827.94;10405597;27;96525;-79
2022/01/29 14:37:45;;;;;;;19.00;7.03;;;5.60;85.50;;;3.80;62.41;100817.44;10402763;28;98727;-79
2022/01/29 14:42:47;;;;;;;20.67;8.13;;;5.60;85.50;;;3.82;62.58;100815.53;10395857;27;96813;-80
2022/01/29 14:47:50;;;;;;;22.23;9.97;;;5.60;85.60;;;3.83;62.16;100819.81;10398182;28;96531;-80
2022/01/29 14:52:53;;;;;;;17.73;6.20;;;5.60;85.50;;;3.81;61.46;100808.59;10366250;28;96504;-79
2022/01/29 14:57:56;;;;;;;14.07;6.23;;;5.60;84.90;;;3.77;61.58;100807.13;10387425;27;98813;-78
2022/01/29 15:03:00;;;;;;;9.57;4.30;;;5.50;84.80;;;3.72;62.60;100809.25;10392083;27;96660;-78
2022/01/29 15:08:04;;;;;;;10.57;3.73;;;5.50;85.90;;;3.62;64.74;100810.84;10398955;27;96545;-78
2022/01/29 15:13:09;;;;;;;10.13;4.43;;;5.40;87.80;;;3.45;66.06;100804.97;10433304;27;97099;-77
2022/01/29 15:18:12;;;;;;;43.10;25.93;;;5.30;90.10;;;3.29;67.79;100796.47;10395878;27;96451;-78
2022/01/29 15:23:35;;;;;;;14.00;6.43;;;5.10;91.30;;;3.18;68.50;100772.78;10394564;27;96560;-78
2022/01/29 15:28:38;;;;;;;9.70;3.77;;;5.00;92.50;;;3.06;69.55;100771.84;10418426;27;96487;-76
2022/01/29 15:33:42;;;;;;;16.70;7.03;;;4.90;93.40;;;2.91;70.79;100763.22;10414251;27;96499;-77
2022/01/29 15:38:45;;;;;;;19.93;6.73;;;4.80;94.00;;;2.77;72.29;100760.69;10384232;27;96840;-77
2022/01/29 15:43:48;;;;;;;41.67;14.83;;;4.70;96.10;;;2.66;73.08;100756.16;10401385;27;96549;-77
2022/01/29 15:48:51;;;;;;;16.67;6.73;;;4.50;97.50;;;2.58;73.76;100760.22;10410852;27;96712;-77
2022/01/29 15:53:54;;;;;;;12.60;3.80;;;4.50;98.60;;;2.52;73.72;100751.03;10411473;27;96592;-77
2022/01/29 15:58:58;;;;;;;16.53;4.90;;;4.40;99.00;;;2.51;73.65;100757.19;10389295;28;96641;-77
2022/01/29 16:04:01;;;;;;;48.57;14.13;;;4.30;99.90;;;2.47;74.53;100749.66;10405982;27;98086;-78
2022/01/29 16:09:04;;;;;;;16.60;5.77;;;4.30;99.90;;;2.38;75.60;100741.44;10376941;27;97069;-77
2022/01/29 16:14:07;;;;;;;22.43;8.10;;;4.30;99.90;;;2.31;76.42;100734.91;10400441;28;96475;-78
2022/01/29 16:19:10;;;;;;;17.30;6.10;;;4.20;99.90;;;2.27;77.01;100738.66;10408566;27;97074;-78
2022/01/29 16:24:14;;;;;;;13.83;3.93;;;4.20;99.90;;;2.23;77.87;100731.97;10390881;27;97312;-78
2022/01/29 16:29:17;;;;;;;10.23;3.43;;;4.10;99.90;;;2.17;78.81;100727.13;10386816;27;96651;-78
2022/01/29 16:34:20;;;;;;;6.90;2.67;;;4.00;99.90;;;2.12;79.90;100718.72;10397589;27;96586;-77
2022/01/29 16:39:24;;;;;;;10.87;3.67;;;4.00;99.90;;;2.05;80.13;100701.72;10398724;27;96602;-78
2022/01/29 16:44:28;;;;;;;11.57;4.00;;;3.90;99.90;;;2.03;80.77;100691.31;10409249;27;97109;-79
2022/01/29 16:49:31;;;;;;;9.70;3.13;;;3.90;99.90;;;2.03;80.79;100688.69;10403321;27;96574;-77
2022/01/29 16:54:34;;;;;;;8.20;3.20;;;3.80;99.90;;;2.04;80.94;100679.03;10409141;27;96479;-77
2022/01/29 16:59:37;;;;;;;8.47;3.17;;;3.80;99.90;;;2.01;81.58;100679.25;10424498;27;96699;-77
2022/01/29 17:04:40;;;;;;;5.90;2.80;;;3.80;99.90;;;1.97;81.90;100665.50;10397581;27;96597;-77
2022/01/29 17:09:44;;;;;;;13.47;3.70;;;3.80;99.90;;;1.94;82.26;100657.03;10434361;27;98142;-77
2022/01/29 17:14:47;;;;;;;7.20;2.40;;;3.70;99.90;;;1.92;82.34;100648.41;10452287;27;96524;-77
2022/01/29 17:19:50;;;;;;;7.93;2.40;;;3.70;99.90;;;1.88;82.59;100639.94;10404140;27;97005;-76
2022/01/29 17:24:53;;;;;;;7.03;2.60;;;3.70;99.90;;;1.90;82.95;100639.81;10390229;27;96964;-76
2022/01/29 17:29:56;;;;;;;8.77;2.60;;;3.60;99.90;;;1.89;82.87;100625.88;10377382;28;96563;-76
2022/01/29 17:34:59;;;;;;;8.57;2.80;;;3.60;99.90;;;1.85;83.26;100619.16;10387048;28;96700;-79
2022/01/29 17:40:04;;;;;;;9.13;4.00;;;3.60;99.90;;;1.81;83.74;100620.31;10403263;27;96524;-76
2022/01/29 17:45:08;;;;;;;10.23;4.13;;;3.50;99.90;;;1.77;83.45;100609.19;10447914;27;97348;-76
2022/01/29 17:50:11;;;;;;;7.07;4.07;;;3.50;99.90;;;1.71;84.41;100612.22;10420244;27;97205;-77
2022/01/29 17:55:15;;;;;;;7.23;4.03;;;3.40;99.90;;;1.65;84.99;100602.13;10377705;28;97196;-78
2022/01/29 18:00:17;;;;;;;10.67;3.87;;;3.40;99.90;;;1.59;85.33;100590.28;10390403;27;96601;-79
2022/01/29 18:05:20;;;;;;;7.10;4.13;;;3.40;99.90;;;1.55;85.28;100580.09;10399573;28;96504;-78
2022/01/29 18:10:23;;;;;;;9.60;3.77;;;3.30;99.90;;;1.51;85.54;100573.41;10396581;28;96724;-78
2022/01/29 18:15:26;;;;;;;7.00;3.43;;;3.30;99.90;;;1.48;85.76;100577.03;10374162;27;96628;-77
2022/01/29 18:20:29;;;;;;;10.13;3.73;;;3.30;99.90;;;1.44;86.18;100567.72;10396535;27;96596;-76
2022/01/29 18:25:33;;;;;;;12.73;4.20;;;3.30;99.90;;;1.41;86.58;100578.38;10417832;27;96622;-76
2022/01/29 18:30:36;;;;;;;8.37;3.90;;;3.20;99.90;;;1.38;87.02;100568.13;10396140;27;96965;-78
2022/01/29 18:35:39;;;;;;;8.83;3.93;;;3.20;99.90;;;1.34;87.45;100566.63;10387720;27;96625;-78
2022/01/29 18:40:51;;;;;;;8.40;3.90;;;3.20;99.90;;;1.28;87.85;100565.25;10394190;28;99074;-78
2022/01/29 18:45:55;;;;;;;;;;;3.10;99.90;;;1.20;88.44;100556.19;10407560;28;96499;-78
2022/01/29 18:50:58;;;;;;;9.67;4.27;;;3.00;99.90;;;1.08;88.81;100552.63;10392375;27;96576;-78
2022/01/29 18:56:01;;;;;;;15.07;5.63;;;2.90;99.90;;;0.99;88.80;100547.97;10373914;28;96582;-78
2022/01/29 19:01:04;;;;;;;11.63;4.30;;;2.80;99.90;;;0.88;89.21;100529.50;10380892;27;96430;-77
2022/01/29 19:06:07;;;;;;;6.43;3.70;;;2.80;99.90;;;0.82;89.86;100530.72;10394410;28;96487;-77
2022/01/29 19:11:30;;;;;;;7.50;3.33;;;2.70;99.90;;;0.75;90.36;100506.72;10415526;27;96518;-77
2022/01/29 19:16:36;;;;;;;13.23;5.23;;;2.60;99.90;;;0.74;90.83;100502.44;10386037;27;96579;-77
2022/01/29 19:21:39;;;;;;;10.47;5.40;;;2.60;99.90;;;0.74;90.62;100486.75;10398235;27;96967;-77
2022/01/29 19:26:42;;;;;;;12.90;4.17;;;2.60;99.90;;;0.77;91.01;100488.31;10398892;27;96654;-78
2022/01/29 19:31:45;;;;;;;12.97;5.00;;;2.70;99.90;;;0.78;91.06;100482.13;10407490;27;97630;-77
2022/01/29 19:36:48;;;;;;;7.57;4.07;;;2.70;99.90;;;0.77;91.74;100483.91;10385133;28;96665;-77
2022/01/29 19:41:51;;;;;;;8.10;3.97;;;2.60;99.90;;;0.75;91.94;100471.88;10397803;27;96732;-77
2022/01/29 19:46:56;;;;;;;9.57;4.53;;;2.60;99.90;;;0.73;92.11;100463.31;10415971;27;97839;-78
2022/01/29 19:51:59;;;;;;;8.13;3.93;;;2.60;99.90;;;0.74;92.60;100457.13;10375950;27;98471;-77
2022/01/29 19:57:02;;;;;;;6.97;3.70;;;2.60;99.90;;;0.75;92.38;100443.94;10391714;28;98597;-78
2022/01/29 20:02:05;;;;;;;11.03;4.40;;;2.60;99.90;;;0.77;92.84;100428.16;10413649;27;96645;-77
2022/01/29 20:07:08;;;;;;;8.67;3.93;;;2.60;99.90;;;0.81;93.12;100421.78;10410885;27;96921;-77
2022/01/29 20:12:11;;;;;;;12.47;6.17;;;2.70;99.90;;;0.85;93.08;100410.19;10398404;28;96655;-78
2022/01/29 20:17:15;;;;;;;12.90;5.33;;;2.70;99.90;;;0.87;93.23;100402.22;10391838;28;96581;-78
2022/01/29 20:22:17;;;;;;;17.43;7.50;;;2.70;99.90;;;0.87;93.43;100405.69;10390941;27;96565;-78
2022/01/29 20:27:21;;;;;;;9.90;4.63;;;2.70;99.90;;;0.92;93.47;100410.63;10401219;27;97122;-78
2022/01/29 20:32:24;;;;;;;10.33;5.33;;;2.80;99.90;;;0.98;93.47;100404.97;10407462;27;96667;-78
2022/01/29 20:37:28;;;;;;;11.63;5.17;;;2.80;99.90;;;1.03;93.89;100393.28;10419542;27;97081;-77
2022/01/29 20:42:31;;;;;;;9.63;4.77;;;2.80;99.90;;;1.07;93.75;100404.34;10402357;27;97339;-77
2022/01/29 20:47:34;;;;;;;11.97;4.67;;;2.90;99.90;;;1.08;93.55;100390.34;10388789;27;96584;-78
2022/01/29 20:52:37;;;;;;;8.93;4.23;;;2.90;99.90;;;1.10;93.99;100372.75;10418360;27;96517;-78
2022/01/29 20:57:40;;;;;;;10.03;4.00;;;2.90;99.90;;;1.10;93.99;100359.69;10380856;28;96771;-78
2022/01/29 21:02:45;;;;;;;9.10;4.10;;;2.90;99.90;;;1.18;93.43;100354.75;10402578;27;96503;-78
2022/01/29 21:07:49;;;;;;;10.23;4.23;;;2.90;99.90;;;1.19;93.04;100337.25;10408151;27;96907;-77
2022/01/29 21:12:52;;;;;;;13.83;5.57;;;3.00;99.90;;;1.17;92.57;100329.53;10391459;28;96586;-78
2022/01/29 21:17:55;;;;;;;10.80;4.60;;;3.00;99.90;;;1.16;92.88;100325.22;10408796;27;98396;-78
2022/01/29 21:22:58;;;;;;;15.13;5.53;;;3.00;99.90;;;1.17;92.58;100311.19;10409243;28;96632;-78